Time;durP1;ratioP1;P1;durP2;ratioP2;P2;SDS_P1;SDS_P2;PMS_P1;PMS_P2;Temp;Humidity;BMP_temperature;BMP_pressure;BME280_temperature;BME280_humidity;BME280_pressure;Samples;Min_cycle;Max_cycle;Signal;HPM_P1;HPM_P2
2021/10/29 00:00:44;;;;;;;;;;;;;;;22.05;53.17;101205.03;2083162;28;803;-55
2021/10/29 00:01:45;;;;;;;;;;;;;;;22.10;53.87;101202.19;2083441;28;993;-55
2021/10/29 00:02:45;;;;;;;;;;;;;;;22.12;52.74;101195.78;2083347;28;974;-55
2021/10/29 00:03:45;;;;;;;;;;;;;;;22.12;52.36;101200.31;2083249;28;767;-55
2021/10/29 00:04:46;;;;;;;;;;;;;;;22.04;52.07;101195.19;2083379;28;823;-55
2021/10/29 00:05:46;;;;;;;;;;;;;;;22.14;52.65;101196.59;2083273;28;1938;-55
2021/10/29 00:06:46;;;;;;;;;;;;;;;22.08;52.42;101196.81;2083260;28;807;-55
2021/10/29 00:07:46;;;;;;;;;;;;;;;22.08;52.83;101204.03;2083424;28;839;-55
2021/10/29 00:08:46;;;;;;;;;;;;;;;22.08;52.47;101201.34;2083199;28;1134;-55
2021/10/29 00:09:47;;;;;;;;;;;;;;;22.10;53.05;101200.34;2083410;28;1210;-55
2021/10/29 00:10:47;;;;;;;;;;;;;;;22.12;51.52;101197.59;2083375;28;1025;-55
2021/10/29 00:11:47;;;;;;;;;;;;;;;22.12;51.20;101205.72;2083060;28;765;-55
2021/10/29 00:12:47;;;;;;;;;;;;;;;22.07;51.84;101205.88;2083377;28;875;-55
2021/10/29 00:13:48;;;;;;;;;;;;;;;22.04;50.86;101203.28;2083382;28;769;-55
2021/10/29 00:14:49;;;;;;;;;;;;;;;21.99;50.87;101198.03;2083387;28;858;-55
2021/10/29 00:15:50;;;;;;;;;;;;;;;21.89;51.55;101196.56;2083319;28;841;-55
2021/10/29 00:16:50;;;;;;;;;;;;;;;21.84;51.00;101193.13;2083181;28;858;-55
2021/10/29 00:17:50;;;;;;;;;;;;;;;21.85;51.80;101203.88;2083324;28;970;-55
2021/10/29 00:18:50;;;;;;;;;;;;;;;21.90;51.74;101207.31;2083371;28;816;-55
2021/10/29 00:19:51;;;;;;;;;;;;;;;21.94;51.33;101208.09;2083268;28;823;-56
2021/10/29 00:20:51;;;;;;;;;;;;;;;21.98;53.04;101206.19;2083328;28;832;-55
2021/10/29 00:21:51;;;;;;;;;;;;;;;22.01;52.70;101195.28;2083079;28;864;-55
2021/10/29 00:22:51;;;;;;;;;;;;;;;21.94;51.98;101205.38;2083204;28;835;-55
2021/10/29 00:23:51;;;;;;;;;;;;;;;21.92;51.41;101199.16;2083265;28;852;-55
2021/10/29 00:24:52;;;;;;;;;;;;;;;21.95;53.35;101199.06;2083343;28;830;-55
2021/10/29 00:25:52;;;;;;;;;;;;;;;21.93;53.16;101206.31;2083216;28;1959;-55
2021/10/29 00:26:52;;;;;;;;;;;;;;;21.92;50.83;101202.75;2083318;28;846;-56
2021/10/29 00:27:53;;;;;;;;;;;;;;;21.85;51.70;101195.78;2082957;28;784;-55
2021/10/29 00:28:53;;;;;;;;;;;;;;;21.93;51.77;101195.53;2083306;28;811;-55
2021/10/29 00:29:54;;;;;;;;;;;;;;;21.95;51.72;101201.75;2083192;28;772;-55
2021/10/29 00:30:55;;;;;;;;;;;;;;;21.96;51.74;101194.56;2083037;28;788;-55
2021/10/29 00:31:55;;;;;;;;;;;;;;;21.94;52.00;101199.13;2083236;28;906;-55
2021/10/29 00:32:55;;;;;;;;;;;;;;;21.95;52.90;101193.66;2082726;28;1029;-55
2021/10/29 00:33:55;;;;;;;;;;;;;;;21.97;51.95;101194.50;2082920;28;970;-55
2021/10/29 00:34:55;;;;;;;;;;;;;;;21.94;53.19;101194.59;2083225;28;816;-55
2021/10/29 00:35:56;;;;;;;;;;;;;;;21.96;51.05;101190.03;2083238;28;856;-55
2021/10/29 00:36:56;;;;;;;;;;;;;;;21.98;51.99;101196.25;2083254;28;815;-55
2021/10/29 00:37:56;;;;;;;;;;;;;;;21.95;51.93;101192.78;2083100;28;1235;-55
2021/10/29 00:38:56;;;;;;;;;;;;;;;22.00;51.31;101190.81;2083218;28;946;-55
2021/10/29 00:39:56;;;;;;;;;;;;;;;21.98;51.78;101196.25;2083172;28;974;-55
2021/10/29 00:40:56;;;;;;;;;;;;;;;21.93;51.58;101187.44;2083187;28;760;-55
2021/10/29 00:41:57;;;;;;;;;;;;;;;21.95;52.30;101185.56;2083204;28;1014;-55
2021/10/29 00:42:57;;;;;;;;;;;;;;;21.98;51.51;101190.88;2083175;28;847;-55
2021/10/29 00:43:57;;;;;;;;;;;;;;;22.00;52.21;101188.13;2082902;28;962;-55
2021/10/29 00:44:57;;;;;;;;;;;;;;;21.95;52.38;101185.56;2083076;28;1049;-56
2021/10/29 00:45:57;;;;;;;;;;;;;;;21.94;52.20;101189.19;2083149;28;1953;-55
2021/10/29 00:46:58;;;;;;;;;;;;;;;21.90;52.31;101179.44;2082936;28;854;-55
2021/10/29 00:47:58;;;;;;;;;;;;;;;21.88;51.83;101189.41;2083171;28;1002;-55
2021/10/29 00:48:58;;;;;;;;;;;;;;;21.98;51.97;101187.31;2083190;28;1021;-55
2021/10/29 00:49:58;;;;;;;;;;;;;;;21.99;52.65;101184.53;2083377;28;761;-55
2021/10/29 00:50:59;;;;;;;;;;;;;;;22.00;51.88;101190.81;2083218;28;812;-55
2021/10/29 00:51:59;;;;;;;;;;;;;;;21.96;52.45;101186.47;2083152;28;978;-55
2021/10/29 00:52:59;;;;;;;;;;;;;;;21.91;51.85;101181.22;2082997;28;795;-55
2021/10/29 00:53:59;;;;;;;;;;;;;;;21.92;52.32;101180.28;2083108;28;1033;-55
2021/10/29 00:55:01;;;;;;;;;;;;;;;21.96;52.75;101179.25;2083171;28;839;-55
2021/10/29 00:56:01;;;;;;;;;;;;;;;22.00;53.23;101177.34;2082681;28;1365;-55
2021/10/29 00:57:01;;;;;;;;;;;;;;;22.00;52.35;101182.75;2083224;28;961;-55
2021/10/29 00:58:01;;;;;;;;;;;;;;;21.98;52.59;101171.97;2083016;28;1300;-56
2021/10/29 00:59:02;;;;;;;;;;;;;;;22.08;53.33;101190.56;2083148;28;1024;-55
2021/10/29 01:00:03;;;;;;;;;;;;;;;22.00;51.76;101186.31;2083129;28;824;-55
2021/10/29 01:01:04;;;;;;;;;;;;;;;21.95;53.15;101182.00;2082929;28;839;-55
2021/10/29 01:02:04;;;;;;;;;;;;;;;21.93;53.16;101182.03;2082937;28;1028;-55
2021/10/29 01:03:04;;;;;;;;;;;;;;;21.88;52.46;101179.50;2083151;28;969;-55
2021/10/29 01:04:05;;;;;;;;;;;;;;;21.84;51.92;101174.25;2083114;28;744;-55
2021/10/29 01:05:05;;;;;;;;;;;;;;;21.84;53.49;101174.25;2083124;28;843;-55
2021/10/29 01:06:06;;;;;;;;;;;;;;;21.84;52.65;101176.94;2083015;28;1914;-55
2021/10/29 01:07:06;;;;;;;;;;;;;;;22.00;51.73;101175.50;2082752;28;1132;-55
2021/10/29 01:08:07;;;;;;;;;;;;;;;22.00;51.62;101178.22;2083153;28;803;-55
2021/10/29 01:09:07;;;;;;;;;;;;;;;21.95;51.97;101174.78;2083001;28;1441;-55
2021/10/29 01:10:08;;;;;;;;;;;;;;;21.96;52.40;101179.25;2083006;28;779;-55
2021/10/29 01:11:11;;;;;;;;;;;;;;;21.92;52.05;101170.38;2083061;28;1291;-56
2021/10/29 01:12:11;;;;;;;;;;;;;;;21.96;52.60;101171.16;2082855;28;905;-55
2021/10/29 01:13:11;;;;;;;;;;;;;;;21.97;52.42;101172.91;2083077;28;1024;-55
2021/10/29 01:14:12;;;;;;;;;;;;;;;21.97;52.04;101174.75;2083105;28;989;-55
2021/10/29 01:15:12;;;;;;;;;;;;;;;21.89;52.69;101178.59;2074006;28;1161;-56
2021/10/29 01:16:12;;;;;;;;;;;;;;;21.94;52.79;101178.41;2074299;28;775;-55
2021/10/29 01:17:12;;;;;;;;;;;;;;;21.91;52.56;101182.09;2083044;28;938;-55
2021/10/29 01:18:13;;;;;;;;;;;;;;;21.89;52.82;101175.88;2083051;28;966;-55
2021/10/29 01:19:13;;;;;;;;;;;;;;;21.86;51.92;101175.09;2083107;28;917;-56
2021/10/29 01:20:20;;;;;;;;;;;;;;;21.86;52.50;101183.19;2082922;28;852;-55
2021/10/29 01:21:20;;;;;;;;;;;;;;;21.80;52.58;101172.59;2082886;28;788;-55
2021/10/29 01:22:22;;;;;;;;;;;;;;;21.79;52.57;101170.81;2083023;28;970;-55
2021/10/29 01:23:22;;;;;;;;;;;;;;;21.73;51.24;101162.03;2082903;28;827;-55
2021/10/29 01:24:22;;;;;;;;;;;;;;;21.76;52.26;101171.81;2082896;28;895;-56
2021/10/29 01:25:23;;;;;;;;;;;;;;;21.85;52.78;101165.22;2082965;28;1894;-55
2021/10/29 01:26:23;;;;;;;;;;;;;;;21.88;52.59;101157.94;2082915;28;860;-55
2021/10/29 01:27:23;;;;;;;;;;;;;;;21.90;52.88;101160.56;2083123;28;987;-56
2021/10/29 01:28:23;;;;;;;;;;;;;;;21.91;52.42;101159.63;2083000;28;800;-55
2021/10/29 01:29:24;;;;;;;;;;;;;;;21.86;52.01;101153.50;2084167;28;1345;-55
2021/10/29 01:30:24;;;;;;;;;;;;;;;21.88;51.99;101154.34;2084565;28;771;-55
2021/10/29 01:31:24;;;;;;;;;;;;;;;21.89;52.77;101164.19;2084608;28;862;-55
2021/10/29 01:32:24;;;;;;;;;;;;;;;21.82;51.87;101163.53;2084609;28;815;-55
2021/10/29 01:33:24;;;;;;;;;;;;;;;21.74;52.27;101162.91;2084572;28;1558;-55
2021/10/29 01:34:25;;;;;;;;;;;;;;;21.82;52.98;101162.63;2084274;28;752;-55
2021/10/29 01:35:25;;;;;;;;;;;;;;;21.89;54.23;101161.50;2084559;28;808;-55
2021/10/29 01:36:25;;;;;;;;;;;;;;;21.82;52.84;101162.63;2084497;28;1169;-55
2021/10/29 01:37:26;;;;;;;;;;;;;;;21.83;51.43;101159.91;2084508;28;1182;-55
2021/10/29 01:38:45;;;;;;;;;;;;;;;21.85;51.90;101157.16;2084489;28;862;-55
2021/10/29 01:39:45;;;;;;;;;;;;;;;21.82;52.58;101160.84;2084353;28;792;-55
2021/10/29 01:40:45;;;;;;;;;;;;;;;21.84;52.53;101164.38;2084468;28;974;-56
2021/10/29 01:41:45;;;;;;;;;;;;;;;21.84;51.59;101161.66;2084535;28;796;-55
2021/10/29 01:42:47;;;;;;;;;;;;;;;21.80;52.30;101162.72;2084193;28;845;-55
2021/10/29 01:43:48;;;;;;;;;;;;;;;21.82;53.15;101160.84;2084514;28;827;-55
2021/10/29 01:44:48;;;;;;;;;;;;;;;21.86;52.42;101162.50;2084529;28;965;-55
2021/10/29 01:45:48;;;;;;;;;;;;;;;21.76;52.73;101152.94;2084210;28;1894;-55
2021/10/29 01:46:49;;;;;;;;;;;;;;;21.81;52.48;101155.47;2084469;28;911;-55
2021/10/29 01:47:49;;;;;;;;;;;;;;;21.90;51.69;101152.47;2084348;28;771;-55
2021/10/29 01:48:51;;;;;;;;;;;;;;;21.80;53.35;101151.03;2084171;28;962;-55
2021/10/29 01:49:51;;;;;;;;;;;;;;;21.85;52.10;101152.66;2084390;28;1087;-55
2021/10/29 01:50:51;;;;;;;;;;;;;;;21.84;52.62;101152.69;2084495;28;768;-55
2021/10/29 01:51:51;;;;;;;;;;;;;;;21.83;52.99;101153.63;2084489;28;894;-56
2021/10/29 01:52:52;;;;;;;;;;;;;;;21.76;53.68;101153.84;2084439;28;973;-55
2021/10/29 01:53:52;;;;;;;;;;;;;;;21.79;52.77;101147.47;2084350;28;859;-56
2021/10/29 01:54:52;;;;;;;;;;;;;;;21.83;52.69;101151.81;2084423;28;844;-55
2021/10/29 01:55:52;;;;;;;;;;;;;;;21.80;52.61;101148.31;2084199;28;1030;-55
2021/10/29 01:56:52;;;;;;;;;;;;;;;21.82;53.04;101149.16;2084451;28;720;-55
2021/10/29 01:57:53;;;;;;;;;;;;;;;21.84;51.74;101145.50;2084439;28;817;-55
2021/10/29 01:58:53;;;;;;;;;;;;;;;21.86;51.90;101140.03;2084162;28;804;-55
2021/10/29 01:59:53;;;;;;;;;;;;;;;21.82;52.38;101144.66;2084377;28;966;-56
2021/10/29 02:00:53;;;;;;;;;;;;;;;21.86;53.33;101140.94;2083577;28;1924;-55
2021/10/29 02:01:54;;;;;;;;;;;;;;;21.84;52.97;101145.50;2084113;28;851;-55
2021/10/29 02:02:54;;;;;;;;;;;;;;;21.77;51.38;101144.84;2084328;28;835;-56
2021/10/29 02:03:54;;;;;;;;;;;;;;;21.88;51.65;101144.47;2084288;28;957;-55
2021/10/29 02:04:54;;;;;;;;;;;;;;;21.82;51.38;101143.75;2084196;28;1036;-55
2021/10/29 02:05:54;;;;;;;;;;;;;;;21.82;52.03;101139.25;2084220;28;1910;-56
2021/10/29 02:06:55;;;;;;;;;;;;;;;21.85;53.01;101138.25;2084284;28;761;-55
2021/10/29 02:07:55;;;;;;;;;;;;;;;21.88;51.78;101136.38;2083896;28;929;-55
2021/10/29 02:08:55;;;;;;;;;;;;;;;21.82;52.56;101136.56;2084298;28;823;-55
2021/10/29 02:09:55;;;;;;;;;;;;;;;21.81;52.19;101131.22;2084296;28;780;-56
2021/10/29 02:10:56;;;;;;;;;;;;;;;21.80;52.40;101134.84;2084269;28;835;-55
2021/10/29 02:11:56;;;;;;;;;;;;;;;21.85;52.06;101140.97;2084260;28;777;-55
2021/10/29 02:12:56;;;;;;;;;;;;;;;21.83;52.39;101132.03;2084217;28;898;-55
2021/10/29 02:13:56;;;;;;;;;;;;;;;21.84;51.34;101128.41;2084233;28;962;-55
2021/10/29 02:14:57;;;;;;;;;;;;;;;21.86;51.76;101126.53;2084207;28;828;-55
2021/10/29 02:15:57;;;;;;;;;;;;;;;21.90;52.41;101129.09;2084147;28;863;-55
2021/10/29 02:16:57;;;;;;;;;;;;;;;21.78;53.76;101121.44;2084254;28;1005;-55
2021/10/29 02:17:58;;;;;;;;;;;;;;;21.77;52.42;101116.97;2084188;28;832;-56
2021/10/29 02:18:58;;;;;;;;;;;;;;;21.82;52.30;101120.38;2084216;28;819;-55
2021/10/29 02:19:59;;;;;;;;;;;;;;;21.76;52.49;101121.50;2084259;28;815;-55
2021/10/29 02:20:59;;;;;;;;;;;;;;;21.79;52.50;101122.28;2084164;28;1049;-55
2021/10/29 02:21:59;;;;;;;;;;;;;;;21.83;51.97;101119.47;2084303;28;882;-55
2021/10/29 02:23:00;;;;;;;;;;;;;;;21.81;52.38;101118.63;2084155;28;958;-56
2021/10/29 02:24:00;;;;;;;;;;;;;;;21.84;51.94;101117.63;2084214;28;784;-56
2021/10/29 02:25:00;;;;;;;;;;;;;;;21.83;51.81;101115.88;2084165;28;875;-56
2021/10/29 02:26:00;;;;;;;;;;;;;;;21.85;51.87;101108.59;2084021;28;1948;-55
2021/10/29 02:27:01;;;;;;;;;;;;;;;21.73;51.44;101115.31;2084250;28;776;-55
2021/10/29 02:28:02;;;;;;;;;;;;;;;21.76;52.74;101118.81;2084187;28;832;-55
2021/10/29 02:29:03;;;;;;;;;;;;;;;21.71;51.88;101112.69;2083732;28;867;-56
2021/10/29 02:30:04;;;;;;;;;;;;;;;21.75;52.97;101111.66;2084116;28;776;-55
2021/10/29 02:31:04;;;;;;;;;;;;;;;21.73;53.05;101108.13;2084106;28;1124;-55
2021/10/29 02:32:04;;;;;;;;;;;;;;;21.75;52.49;101108.94;2084102;28;835;-55
2021/10/29 02:33:04;;;;;;;;;;;;;;;21.74;52.15;101107.19;2083980;28;1511;-55
2021/10/29 02:34:05;;;;;;;;;;;;;;;21.82;52.11;101108.72;2083758;28;924;-55
2021/10/29 02:35:05;;;;;;;;;;;;;;;21.84;51.91;101096.94;2083781;28;989;-56
2021/10/29 02:36:06;;;;;;;;;;;;;;;21.79;51.98;101104.31;2084025;28;969;-55
2021/10/29 02:37:06;;;;;;;;;;;;;;;21.75;51.51;101110.75;2084154;28;847;-56
2021/10/29 02:38:06;;;;;;;;;;;;;;;21.73;52.43;101104.53;2083972;28;1230;-55
2021/10/29 02:39:06;;;;;;;;;;;;;;;21.80;52.54;101107.88;2084108;28;933;-55
2021/10/29 02:40:07;;;;;;;;;;;;;;;21.75;51.95;101099.97;2083973;28;1033;-55
2021/10/29 02:41:07;;;;;;;;;;;;;;;21.64;52.40;101099.44;2084087;28;997;-55
2021/10/29 02:42:07;;;;;;;;;;;;;;;21.72;52.58;101100.97;2083990;28;748;-56
2021/10/29 02:43:07;;;;;;;;;;;;;;;21.71;52.97;101098.28;2084071;28;784;-56
2021/10/29 02:44:08;;;;;;;;;;;;;;;21.81;51.04;101097.06;2084007;28;933;-55
2021/10/29 02:45:08;;;;;;;;;;;;;;;21.76;52.00;101096.34;2084108;28;1049;-55
2021/10/29 02:46:08;;;;;;;;;;;;;;;21.77;51.70;101095.41;2084005;28;1966;-55
2021/10/29 02:47:09;;;;;;;;;;;;;;;21.74;52.59;101093.69;2075149;28;867;-55
2021/10/29 02:48:09;;;;;;;;;;;;;;;21.73;53.02;101094.63;2075239;28;793;-55
2021/10/29 02:49:10;;;;;;;;;;;;;;;21.79;51.56;101087.25;2083975;28;791;-56
2021/10/29 02:50:11;;;;;;;;;;;;;;;21.75;52.33;101092.75;2083979;28;985;-55
2021/10/29 02:51:11;;;;;;;;;;;;;;;21.77;52.05;101065.72;2083986;28;977;-56
2021/10/29 02:52:11;;;;;;;;;;;;;;;21.76;52.51;101039.72;2083789;28;820;-55
2021/10/29 02:53:12;;;;;;;;;;;;;;;21.76;51.39;101040.59;2083886;28;799;-55
2021/10/29 02:54:12;;;;;;;;;;;;;;;21.83;51.82;101043.94;2084018;28;866;-55
2021/10/29 02:55:13;;;;;;;;;;;;;;;21.83;51.80;101043.94;2083993;28;883;-55
2021/10/29 02:56:13;;;;;;;;;;;;;;;21.80;52.04;101040.47;2074863;28;1277;-55
2021/10/29 02:57:14;;;;;;;;;;;;;;;21.78;52.33;101018.97;2075235;28;787;-55
2021/10/29 02:58:14;;;;;;;;;;;;;;;21.77;52.32;101031.59;2083820;28;879;-56
2021/10/29 02:59:14;;;;;;;;;;;;;;;21.75;52.31;101086.47;2083906;28;1317;-56
2021/10/29 03:00:16;;;;;;;;;;;;;;;21.79;52.53;101079.16;2083720;28;839;-55
2021/10/29 03:01:16;;;;;;;;;;;;;;;21.79;51.59;101079.16;2083836;28;879;-55
2021/10/29 03:02:16;;;;;;;;;;;;;;;21.70;52.33;101085.75;2083901;28;977;-56
2021/10/29 03:03:16;;;;;;;;;;;;;;;21.69;53.50;101082.19;2083659;28;1016;-56
2021/10/29 03:04:16;;;;;;;;;;;;;;;21.79;51.97;101076.44;2083697;28;823;-55
2021/10/29 03:05:16;;;;;;;;;;;;;;;21.80;51.46;101083.59;2083873;28;835;-55
2021/10/29 03:06:16;;;;;;;;;;;;;;;21.81;51.52;101077.28;2083724;28;1917;-55
2021/10/29 03:07:17;;;;;;;;;;;;;;;21.74;52.08;101080.22;2083894;28;835;-55
2021/10/29 03:08:17;;;;;;;;;;;;;;;21.74;53.34;101082.91;2083830;28;867;-55
2021/10/29 03:09:18;;;;;;;;;;;;;;;21.71;52.55;101084.81;2083623;28;849;-55
2021/10/29 03:10:18;;;;;;;;;;;;;;;21.69;52.13;101084.88;2083893;28;780;-56
2021/10/29 03:11:19;;;;;;;;;;;;;;;21.73;52.51;101069.47;2083807;28;1208;-55
2021/10/29 03:12:19;;;;;;;;;;;;;;;21.75;53.15;101068.50;2083436;28;1135;-57
2021/10/29 03:13:20;;;;;;;;;;;;;;;21.69;51.84;101051.63;2083842;28;766;-55
2021/10/29 03:14:20;;;;;;;;;;;;;;;21.74;53.05;101055.97;2083777;28;807;-56
2021/10/29 03:15:20;;;;;;;;;;;;;;;21.75;51.62;101052.31;2083806;28;918;-56
2021/10/29 03:16:21;;;;;;;;;;;;;;;21.74;51.87;101053.25;2083720;28;961;-56
2021/10/29 03:17:21;;;;;;;;;;;;;;;21.77;52.58;101058.53;2083614;28;866;-55
2021/10/29 03:18:21;;;;;;;;;;;;;;;21.79;52.12;101054.88;2083615;28;906;-55
2021/10/29 03:19:21;;;;;;;;;;;;;;;21.79;51.38;101055.78;2083779;28;1016;-56
2021/10/29 03:20:21;;;;;;;;;;;;;;;21.74;52.37;101047.88;2083774;28;990;-55
2021/10/29 03:21:22;;;;;;;;;;;;;;;21.73;51.58;101056.00;2083809;28;827;-55
2021/10/29 03:22:22;;;;;;;;;;;;;;;21.74;52.88;101045.16;2083758;28;937;-55
2021/10/29 03:23:22;;;;;;;;;;;;;;;21.73;52.07;101051.50;2083713;28;772;-56
2021/10/29 03:24:22;;;;;;;;;;;;;;;21.71;52.82;101042.56;2083735;28;705;-55
2021/10/29 03:25:22;;;;;;;;;;;;;;;21.77;52.12;101041.47;2083511;28;1961;-55
2021/10/29 03:26:23;;;;;;;;;;;;;;;21.76;51.83;101040.59;2083764;28;942;-55
2021/10/29 03:27:23;;;;;;;;;;;;;;;21.75;51.83;101044.22;2083686;28;819;-55
2021/10/29 03:28:23;;;;;;;;;;;;;;;21.65;52.38;101049.97;2083360;28;791;-55
2021/10/29 03:29:23;;;;;;;;;;;;;;;21.66;52.44;101049.94;2083634;28;1017;-56
2021/10/29 03:30:26;;;;;;;;;;;;;;;21.71;52.22;101053.38;2083636;28;793;-55
2021/10/29 03:31:26;;;;;;;;;;;;;;;21.62;53.49;101051.84;2083705;28;871;-55
2021/10/29 03:32:26;;;;;;;;;;;;;;;21.68;52.35;101049.88;2083649;28;852;-55
2021/10/29 03:33:26;;;;;;;;;;;;;;;21.71;52.12;101047.97;2083643;28;1005;-55
2021/10/29 03:34:27;;;;;;;;;;;;;;;21.71;52.54;101042.56;2083582;28;773;-55
2021/10/29 03:35:28;;;;;;;;;;;;;;;21.75;51.68;101046.03;2083231;28;855;-56
2021/10/29 03:36:28;;;;;;;;;;;;;;;21.74;52.10;101052.34;2083301;28;914;-56
2021/10/29 03:38:50;;;;;;;;;;;;;;;21.72;51.66;101051.53;2083703;28;807;-55
2021/10/29 03:40:03;;;;;;;;;;;;;;;21.74;52.66;101053.25;2083623;28;871;-56
2021/10/29 03:41:08;;;;;;;;;;;;;;;21.81;51.30;101055.72;2083706;28;867;-55
2021/10/29 03:42:21;;;;;;;;;;;;;;;21.80;51.82;101053.94;2083381;28;820;-55
2021/10/29 03:43:26;;;;;;;;;;;;;;;21.74;52.87;101058.66;2083560;28;871;-56
2021/10/29 03:44:46;;;;;;;;;;;;;;;21.59;52.81;101049.22;2083466;28;808;-55
2021/10/29 03:45:51;;;;;;;;;;;;;;;21.72;51.15;101052.44;2083590;28;1961;-55
2021/10/29 03:46:54;;;;;;;;;;;;;;;21.73;52.13;101054.19;2083578;28;819;-56
2021/10/29 03:48:00;;;;;;;;;;;;;;;21.74;51.86;101055.97;2083511;28;799;-56
2021/10/29 03:50:26;;;;;;;;;;;;;;;21.71;51.61;101053.38;2058256;28;1078;-55
2021/10/29 03:51:38;;;;;;;;;;;;;;;21.69;51.85;101060.63;2057836;28;1034;-55
2021/10/29 03:52:48;;;;;;;;;;;;;;;21.74;51.72;101055.97;2058113;28;1146;-56
2021/10/29 03:53:55;;;;;;;;;;;;;;;21.69;52.98;101063.31;2058368;28;919;-55
2021/10/29 03:54:57;;;;;;;;;;;;;;;21.75;52.21;101060.41;2058352;28;819;-55
2021/10/29 03:55:59;;;;;;;;;;;;;;;21.70;51.46;101065.09;2057890;28;1450;-55
2021/10/29 03:58:00;;;;;;;;;;;;;;;21.69;53.22;101060.63;2058234;28;1006;-55
2021/10/29 03:59:02;;;;;;;;;;;;;;;21.71;51.75;101063.25;2058152;28;978;-55
2021/10/29 04:00:03;;;;;;;;;;;;;;;21.63;52.33;101063.53;2058158;28;903;-56
2021/10/29 04:01:03;;;;;;;;;;;;;;;21.60;52.73;101066.28;2058284;28;832;-55
2021/10/29 04:02:06;;;;;;;;;;;;;;;21.68;52.06;101058.84;2058218;28;1063;-55
2021/10/29 04:03:08;;;;;;;;;;;;;;;21.72;51.95;101057.81;2058200;28;964;-55
2021/10/29 04:04:08;;;;;;;;;;;;;;;22.00;51.59;101061.34;2058073;28;809;-55
2021/10/29 04:05:08;;;;;;;;;;;;;;;22.55;50.87;101055.72;2058194;28;860;-55
2021/10/29 04:06:09;;;;;;;;;;;;;;;22.83;50.18;101053.78;2057969;28;1907;-56
2021/10/29 04:07:09;;;;;;;;;;;;;;;22.95;49.84;101050.59;2058164;28;812;-55
2021/10/29 04:08:10;;;;;;;;;;;;;;;23.09;49.25;101050.91;2058182;28;984;-55
2021/10/29 04:09:10;;;;;;;;;;;;;;;23.21;47.86;101048.66;2057899;28;929;-56
2021/10/29 04:10:10;;;;;;;;;;;;;;;23.29;49.33;101046.53;2058162;28;1022;-56
2021/10/29 04:11:11;;;;;;;;;;;;;;;23.32;49.48;101046.41;2058252;28;757;-56
2021/10/29 04:12:12;;;;;;;;;;;;;;;23.36;50.04;101047.16;2058177;28;796;-56
2021/10/29 04:13:12;;;;;;;;;;;;;;;23.42;48.81;101054.13;2058176;28;788;-56
2021/10/29 04:14:13;;;;;;;;;;;;;;;23.52;48.51;101047.41;2058134;28;830;-56
2021/10/29 04:15:13;;;;;;;;;;;;;;;23.57;47.52;101037.25;2058128;28;917;-55
2021/10/29 04:16:14;;;;;;;;;;;;;;;23.57;49.42;101044.47;2058123;28;1314;-55
2021/10/29 04:17:14;;;;;;;;;;;;;;;23.62;48.09;101043.34;2057920;28;804;-55
2021/10/29 04:18:14;;;;;;;;;;;;;;;23.76;47.62;101037.34;2057942;28;958;-55
2021/10/29 04:19:16;;;;;;;;;;;;;;;23.82;48.32;101038.91;2058156;28;836;-54
2021/10/29 04:20:16;;;;;;;;;;;;;;;23.87;47.76;101046.81;2058192;28;773;-55
2021/10/29 04:21:17;;;;;;;;;;;;;;;23.95;47.77;101044.66;2058147;28;1063;-55
2021/10/29 04:22:17;;;;;;;;;;;;;;;23.95;48.04;101050.06;2058087;28;868;-55
2021/10/29 04:23:17;;;;;;;;;;;;;;;23.91;47.08;101049.28;2057953;28;959;-55
2021/10/29 04:24:17;;;;;;;;;;;;;;;23.95;47.66;101053.63;2058088;28;986;-54
2021/10/29 04:25:17;;;;;;;;;;;;;;;24.04;47.26;101052.38;2057964;28;870;-54
2021/10/29 04:26:18;;;;;;;;;;;;;;;24.08;47.73;101048.59;2058064;28;1890;-53
2021/10/29 04:27:28;;;;;;;;;;;;;;;24.10;50.24;101053.94;2058065;28;1004;-53
2021/10/29 04:28:28;;;;;;;;;;;;;;;23.98;49.80;101049.91;2078902;28;995;-54
2021/10/29 04:29:36;;;;;;;;;;;;;;;24.02;49.39;101045.28;2083274;28;1132;-54
2021/10/29 04:30:36;;;;;;;;;;;;;;;24.14;48.17;101050.13;2083161;28;906;-55
2021/10/29 04:31:41;;;;;;;;;;;;;;;24.24;47.96;101053.28;2083055;28;855;-55
2021/10/29 04:32:41;;;;;;;;;;;;;;;24.32;47.04;101048.41;2083271;28;785;-55
2021/10/29 04:33:42;;;;;;;;;;;;;;;24.34;47.61;101056.47;2083326;28;855;-55
2021/10/29 04:34:42;;;;;;;;;;;;;;;24.30;48.01;101054.84;2083154;28;817;-55
2021/10/29 04:35:47;;;;;;;;;;;;;;;24.27;50.57;101047.75;2083246;28;827;-55
2021/10/29 04:36:48;;;;;;;;;;;;;;;24.37;48.30;101048.22;2082988;28;899;-55
2021/10/29 04:37:48;;;;;;;;;;;;;;;24.39;52.04;101043.59;2083165;28;1170;-55
2021/10/29 04:38:49;;;;;;;;;;;;;;;24.37;48.49;101045.50;2083226;28;812;-55
2021/10/29 04:39:50;;;;;;;;;;;;;;;24.40;48.76;101051.63;2083181;28;859;-55
2021/10/29 04:40:50;;;;;;;;;;;;;;;24.34;46.47;101056.47;2083228;28;834;-55
2021/10/29 04:41:51;;;;;;;;;;;;;;;24.25;53.02;101055.03;2083198;28;807;-55
2021/10/29 04:42:51;;;;;;;;;;;;;;;24.34;49.67;101056.47;2083159;28;823;-55
2021/10/29 04:43:51;;;;;;;;;;;;;;;24.32;51.21;101053.81;2083069;28;860;-55
2021/10/29 04:44:51;;;;;;;;;;;;;;;24.28;48.98;101050.38;2083193;28;981;-55
2021/10/29 04:45:52;;;;;;;;;;;;;;;24.24;48.41;101053.28;2083131;28;1949;-55
2021/10/29 04:46:52;;;;;;;;;;;;;;;24.32;47.79;101047.53;2074130;28;855;-55
2021/10/29 04:47:52;;;;;;;;;;;;;;;24.32;49.04;101047.53;2074391;28;838;-55
2021/10/29 04:48:53;;;;;;;;;;;;;;;24.32;48.89;101053.81;2083136;28;780;-55
2021/10/29 04:49:53;;;;;;;;;;;;;;;24.40;49.62;101050.78;2083206;28;982;-55
2021/10/29 04:50:53;;;;;;;;;;;;;;;24.44;50.36;101044.25;2083153;28;807;-55
2021/10/29 04:51:53;;;;;;;;;;;;;;;24.49;49.59;101049.47;2083144;28;895;-55
2021/10/29 04:52:53;;;;;;;;;;;;;;;24.42;48.47;101052.44;2082874;28;787;-55
2021/10/29 04:53:56;;;;;;;;;;;;;;;24.34;47.68;101045.66;2083138;28;906;-55
2021/10/29 04:54:56;;;;;;;;;;;;;;;24.30;51.47;101044.88;2083166;28;946;-55
2021/10/29 04:55:57;;;;;;;;;;;;;;;24.45;49.52;101051.41;2082990;28;1066;-55
2021/10/29 04:56:57;;;;;;;;;;;;;;;24.53;49.39;101051.94;2083209;28;776;-55
2021/10/29 04:57:58;;;;;;;;;;;;;;;24.45;50.91;101047.84;2082812;28;874;-55
2021/10/29 04:58:58;;;;;;;;;;;;;;;24.54;48.12;101044.72;2083173;28;764;-55
2021/10/29 05:00:00;;;;;;;;;;;;;;;24.48;49.74;101042.28;2083115;28;768;-55
2021/10/29 05:01:01;;;;;;;;;;;;;;;24.42;48.40;101041.63;2083156;28;894;-55
2021/10/29 05:02:01;;;;;;;;;;;;;;;24.54;47.11;101033.88;2083119;28;827;-55
2021/10/29 05:03:02;;;;;;;;;;;;;;;24.52;48.89;101033.06;2083005;28;919;-55
2021/10/29 05:04:02;;;;;;;;;;;;;;;24.59;48.85;101029.13;2083874;28;811;-55
2021/10/29 05:05:04;;;;;;;;;;;;;;;24.45;51.82;101031.59;2084763;28;985;-55
2021/10/29 05:06:04;;;;;;;;;;;;;;;24.45;49.02;101026.19;2084746;28;1914;-55
2021/10/29 05:07:04;;;;;;;;;;;;;;;24.53;49.80;101021.28;2084924;28;892;-55
2021/10/29 05:08:05;;;;;;;;;;;;;;;24.62;48.59;101023.56;2084740;28;838;-55
2021/10/29 05:09:06;;;;;;;;;;;;;;;24.51;50.16;101021.34;2084545;28;1632;-55
2021/10/29 05:10:06;;;;;;;;;;;;;;;24.63;49.81;101019.00;2084747;28;974;-55
2021/10/29 05:11:07;;;;;;;;;;;;;;;24.67;51.47;101016.09;2084576;28;1200;-55
2021/10/29 05:12:07;;;;;;;;;;;;;;;24.74;48.65;101016.69;2084696;28;830;-55
2021/10/29 05:13:07;;;;;;;;;;;;;;;24.79;47.02;101020.06;2084782;28;930;-55
2021/10/29 05:14:07;;;;;;;;;;;;;;;24.67;49.61;101018.81;2084762;28;975;-55
2021/10/29 05:15:08;;;;;;;;;;;;;;;24.67;49.75;101018.81;2084776;28;839;-55
2021/10/29 05:16:08;;;;;;;;;;;;;;;24.70;46.27;101017.75;2084676;28;796;-55
2021/10/29 05:17:08;;;;;;;;;;;;;;;24.67;51.45;101010.69;2084595;28;978;-55
2021/10/29 05:18:15;;;;;;;;;;;;;;;24.64;50.74;101013.53;2084706;28;766;-55
2021/10/29 05:19:15;;;;;;;;;;;;;;;24.61;47.95;101024.50;2084540;28;875;-55
2021/10/29 05:20:16;;;;;;;;;;;;;;;24.57;53.34;101022.91;2084554;28;830;-55
2021/10/29 05:21:16;;;;;;;;;;;;;;;24.67;49.33;101024.22;2084726;28;807;-55
2021/10/29 05:22:16;;;;;;;;;;;;;;;24.70;49.00;101015.94;2084490;28;960;-55
2021/10/29 05:23:16;;;;;;;;;;;;;;;24.64;51.44;101015.34;2084523;28;895;-56
2021/10/29 05:24:17;;;;;;;;;;;;;;;24.66;51.29;101019.75;2084178;28;920;-55